Cuney, Texas
Current Conditions -  °F | °C
As of 9:35 AM on Saturday 25 Oct 2014 (Local Time) from KJSO Reporting Station
Clear Clear  
Wind Chill: 68°   Ceiling: Unl
Heat Index: 68°   Visibility: 10mi
Dew Point: 58°   Wind: 7mph
Humidity: 71%   Direction: 230°SW
Pressure: 30.21"   Gusts: NA
Location:  32.03°N, 95.42°W
Report Text: KJSO 251435Z AUTO 23006KT 10SM CLR 20/14 A3021 RMK AO2 T01980144
Loading
Personal Weather Stations






























Interactive Weather Map
Tropical Storm Tracking
New forecast layout! Learn more

10-Day Weather Forecast

Advertisements
Track Severe Weather on mobile